createdAt,value
2019-02-08T16:39:12.202Z,67.07
2019-02-08T16:41:44.075Z,67.94
2019-02-08T16:44:15.762Z,69.60
2019-02-08T16:46:47.325Z,70.28
2019-02-08T16:49:19.238Z,70.42
2019-02-08T16:51:50.771Z,70.24
2019-02-08T16:54:22.835Z,69.67
2019-02-08T16:56:54.415Z,69.17
2019-02-08T16:59:26.024Z,68.69
2019-02-08T17:01:58.071Z,67.99
2019-02-08T17:04:29.696Z,67.55
2019-02-08T17:07:01.324Z,67.11
2019-02-08T17:09:33.023Z,66.94
2019-02-08T17:12:04.920Z,66.60
2019-02-08T17:14:36.840Z,66.09
2019-02-08T17:17:08.389Z,65.86
2019-02-08T17:19:39.967Z,65.42
2019-02-08T17:22:11.464Z,65.18
2019-02-08T17:24:43.086Z,64.99
2019-02-08T17:27:14.991Z,64.87
2019-02-08T17:29:46.537Z,64.87
2019-02-08T17:32:19.319Z,64.71
2019-02-08T17:34:51.003Z,64.60
2019-02-08T17:37:22.645Z,64.51
2019-02-08T17:39:54.445Z,64.44
2019-02-08T17:42:26.425Z,64.40
2019-02-08T17:44:58.117Z,64.38
2019-02-08T17:47:29.550Z,64.38
2019-02-08T17:50:01.529Z,64.36
2019-02-08T17:52:33.675Z,64.38
2019-02-08T17:55:07.024Z,64.29
2019-02-08T17:57:38.785Z,64.24
2019-02-08T18:00:17.772Z,64.10
2019-02-08T18:02:49.345Z,64.13
2019-02-08T18:05:21.311Z,64.08
2019-02-08T18:07:52.977Z,64.03
2019-02-08T18:10:26.353Z,63.91
2019-02-08T18:12:58.201Z,64.13
2019-02-08T18:15:30.211Z,63.98
2019-02-08T18:18:01.895Z,63.55
2019-02-08T18:20:36.699Z,63.22
2019-02-08T18:23:08.526Z,63.04
2019-02-08T18:25:40.110Z,62.98
2019-02-08T18:28:12.017Z,62.96
2019-02-08T18:30:44.106Z,63.10
2019-02-08T18:33:17.462Z,63.09
2019-02-08T18:35:49.570Z,63.37
2019-02-08T18:38:21.267Z,63.62
2019-02-08T18:40:53.188Z,63.90
2019-02-08T18:43:25.310Z,64.03
2019-02-08T18:45:57.120Z,64.15
2019-02-08T18:48:28.733Z,64.51
2019-02-08T18:51:00.214Z,64.97
2019-02-08T18:53:31.853Z,65.02
2019-02-08T18:56:03.427Z,64.96
2019-02-08T18:58:36.544Z,64.96
2019-02-08T19:01:08.201Z,65.04
2019-02-08T19:03:39.770Z,65.09
2019-02-08T19:06:11.329Z,65.32
2019-02-08T19:08:42.937Z,65.34
2019-02-08T19:11:14.542Z,65.49
2019-02-08T19:13:46.213Z,65.59
2019-02-08T19:16:18.283Z,65.65
2019-02-08T19:18:49.768Z,65.53
2019-02-08T19:21:21.672Z,65.11
2019-02-08T19:23:53.447Z,64.81
2019-02-08T19:26:25.109Z,64.81
2019-02-08T19:28:56.744Z,64.77
2019-02-08T19:31:28.691Z,64.74
2019-02-08T19:34:00.248Z,64.71
2019-02-08T19:36:31.916Z,64.77
2019-02-08T19:39:05.204Z,64.73
2019-02-08T19:41:38.724Z,64.85
2019-02-08T19:44:10.447Z,64.88
2019-02-08T19:46:42.185Z,64.87
2019-02-08T19:49:13.775Z,64.79
2019-02-08T19:51:45.818Z,64.74
2019-02-08T19:54:17.363Z,64.79
2019-02-08T19:56:49.770Z,64.77
2019-02-08T19:59:21.759Z,64.73
2019-02-08T20:01:53.769Z,64.86
2019-02-08T20:04:25.649Z,64.81
2019-02-08T20:06:57.629Z,64.79
2019-02-08T20:09:29.205Z,64.84
2019-02-08T20:12:01.007Z,64.91
2019-02-08T20:14:33.208Z,64.85
2019-02-08T20:17:05.056Z,64.95
2019-02-08T20:19:37.187Z,65.19
2019-02-08T20:22:10.496Z,65.39
2019-02-08T20:24:43.481Z,65.48
2019-02-08T20:27:15.663Z,65.59
2019-02-08T20:29:48.179Z,66.01
2019-02-08T20:32:20.559Z,66.48
2019-02-08T20:34:52.427Z,66.70
2019-02-08T20:37:24.601Z,66.92
2019-02-08T20:39:56.761Z,67.12
2019-02-08T20:42:28.919Z,67.17
2019-02-08T20:45:01.341Z,67.17
2019-02-08T20:47:33.701Z,67.40
2019-02-08T20:50:06.168Z,67.48
2019-02-08T20:52:38.086Z,67.59
2019-02-08T20:55:10.047Z,67.74
2019-02-08T20:57:43.302Z,67.42
2019-02-08T21:00:27.859Z,67.31
2019-02-08T21:03:00.413Z,67.31
2019-02-08T21:05:32.205Z,67.36
2019-02-08T21:08:03.963Z,67.47
2019-02-08T21:10:36.095Z,67.66
2019-02-08T21:13:09.861Z,67.65
2019-02-08T21:15:41.681Z,67.45
2019-02-08T21:18:14.310Z,67.36
2019-02-08T21:20:47.386Z,67.48
2019-02-08T21:23:19.528Z,67.49
2019-02-08T21:25:51.748Z,67.44
2019-02-08T21:28:25.739Z,67.39
2019-02-08T21:30:57.948Z,67.22
2019-02-08T21:33:30.062Z,67.31
2019-02-08T21:36:01.776Z,67.31
2019-02-08T21:38:33.700Z,67.42
2019-02-08T21:41:05.306Z,67.30
2019-02-08T21:43:36.909Z,67.32
2019-02-08T21:46:08.971Z,67.59
2019-02-08T21:48:40.675Z,67.74
2019-02-08T21:51:12.660Z,67.85
2019-02-08T21:53:45.141Z,67.80
2019-02-08T21:56:17.011Z,67.81
2019-02-08T21:58:48.787Z,67.79
2019-02-08T22:01:20.731Z,67.78
2019-02-08T22:03:52.355Z,67.80
2019-02-08T22:06:24.062Z,67.82
2019-02-08T22:08:55.715Z,67.72
2019-02-08T22:11:27.533Z,67.85
2019-02-08T22:13:59.339Z,67.74
2019-02-08T22:16:30.923Z,67.53
2019-02-08T22:19:02.528Z,67.46
2019-02-08T22:21:34.229Z,67.49
2019-02-08T22:24:06.196Z,67.55
2019-02-08T22:26:37.913Z,67.42
2019-02-08T22:29:14.229Z,67.37
2019-02-08T22:31:43.587Z,67.29
2019-02-08T22:34:15.341Z,67.31
2019-02-08T22:36:46.948Z,67.27
2019-02-08T22:39:18.772Z,67.34
2019-02-08T22:41:50.414Z,67.34
2019-02-08T22:44:22.201Z,67.37
2019-02-08T22:46:54.073Z,67.49
2019-02-08T22:49:25.897Z,67.49
2019-02-08T22:51:57.684Z,67.40
2019-02-08T22:54:29.528Z,67.45
2019-02-08T22:57:01.146Z,67.49
2019-02-08T22:59:32.957Z,67.46
2019-02-08T23:02:05.951Z,67.52
2019-02-08T23:04:37.904Z,67.62
2019-02-08T23:07:09.393Z,67.70
2019-02-08T23:09:42.314Z,67.62
2019-02-08T23:12:13.923Z,67.62
2019-02-08T23:14:45.603Z,67.64
2019-02-08T23:17:17.164Z,67.63
2019-02-08T23:19:48.954Z,67.77
2019-02-08T23:22:20.416Z,67.90
2019-02-08T23:24:52.026Z,67.80
2019-02-08T23:27:23.554Z,67.77
2019-02-08T23:29:55.186Z,67.84
2019-02-08T23:32:26.962Z,67.78
2019-02-08T23:34:58.702Z,67.94
2019-02-08T23:37:30.248Z,67.97
2019-02-08T23:40:01.986Z,67.86
2019-02-08T23:42:33.609Z,67.87
2019-02-08T23:45:06.545Z,68.00
2019-02-08T23:47:38.437Z,67.97
2019-02-08T23:50:10.302Z,67.99
2019-02-08T23:52:41.807Z,68.02
2019-02-08T23:55:13.667Z,67.97
2019-02-08T23:57:45.111Z,67.97
